Wetterstation Rottenburg Seebronn / 442m msl / http://mut-lambrecht.de
LETZTE AKTUALISIERUNG UM: 02:55 DATUM: Mai 15 2022, time of next update: 03:00
Aktuelles WetterClear/Night Aktuelle Temperatur 10.3°C (50.5°F), Apparent temp 9.9°C
Höchsttemperatur (seit Mitternacht)12.7°C um: 00:00 Tiefsttemperatur (seit Mitternacht)10.3°C um: 02:07
Windgeschwindigkeit (10 Minuten )0.0 kmh (0.0 kts) Windrichtung (Dir) (10 Minuten )WSW (249°)
Windchill Temperatur 10.3°C Windspitzen (letzte Std)8.5 kmh (4.6 kts) um: 02:09
Windspitzen (seit Mitternacht)9.3 kmh (5.0 kts) um: 02:09 Höchstes Windmittel / Minute (seit Mitternacht)4.0 kmh (2.2 kts) um: 02:15
Regenmenge (letzte Std)0.0 mm Regenmenge (seit Mitternacht)0.0 mm (0.00 in.)---
Regenmenge diesen Monat 0.0 mm (0.00 in.) Regenmenge seit Jahresbeginn 18.6 mm (0.73 in.)
Höchste Regenmenge pro Minute (letzte Std)0.0 mm/min Höchste Regenmenge pro Stunde (letzte 6 Std)0.0 mm/stunde
Regenmenge Gestern 0.0 mm Taupunkt 6.3°C (Wet Bulb :8.4°C )
Luftfeuchtigkeit 76 %, Humidex 10.0°C Aktueller Luftdruck (auf Meereshöhe bezogen)1018.3 hPa
Luftdrucktendenz -0.3 hPa (letzte Std) Trend (letzte 1 Std)gleichbleibend
Luftdrucktendenz (letzte 12 Std)-2.8 hPa Luftdrucktendenz (letzte 6 Std)-1.5 hPa


Grafische Darstellung der letzten 24 Stunden.
Grafische Darstellung der letzten 48 Stunden.
Grafische Darstellung der letzten 72 Stunden.
Grafische Darstellung der letzten month.


Weather report/warning/Metars

Stuttgart-Echterdingen, Germany (EDDS) 48-41N 009-13E 391M
May 14, 2022 - 07:50 PM EDT / 2022.05.14 2350 UTC
Wind: from the NNW (340 degrees) at 3 MPH (3 KT) (direction variable):0
Visibility: greater than 7 mile(s):0
Temperature: 51 F (11 C)
Dew Point: 46 F (8 C)
Relative Humidity: 81%
Pressure (altimeter): 30.12 in. Hg (1020 hPa)
ob: EDDS 142350Z 34003KT 310V030 CAVOK 11/08 Q1020
cycle: 0
Karlsruhe, Baden Wurttemberg, Germany (EDSB) 48-46-43N 008-04-47E
May 14, 2022 - 07:50 PM EDT / 2022.05.14 2350 UTC
Wind: from the NNE (030 degrees) at 6 MPH (5 KT):0
Visibility: greater than 7 mile(s):0
Temperature: 51 F (11 C)
Dew Point: 44 F (7 C)
Relative Humidity: 76%
Pressure (altimeter): 30.09 in. Hg (1019 hPa)
ob: EDSB 142350Z AUTO 03005KT 9999 NCD 11/07 Q1019
cycle: 0
Lahr, CAN-AFB, Germany (EDTL) 48-22-09N 007-49-40E
May 14, 2022 - 11:50 AM EDT / 2022.05.14 1550 UTC
Wind: from the NNE (030 degrees) at 6 MPH (5 KT) (direction variable):0
Visibility: greater than 7 mile(s):0
Temperature: 75 F (24 C)
Dew Point: 39 F (4 C)
Relative Humidity: 27%
Pressure (altimeter): 30.09 in. Hg (1019 hPa)
ob: EDTL 141550Z 03005KT 350V060 CAVOK 24/04 Q1019
cycle: 16
Laupheim, Germany (ETHL) 48-13N 009-55E 550M
May 14, 2022 - 07:20 PM EDT / 2022.05.14 2320 UTC
Wind: Variable at 1 MPH (1 KT):0
Visibility: greater than 7 mile(s):0
Temperature: 53 F (12 C)
Dew Point: 42 F (6 C)
Relative Humidity: 66%
Pressure (altimeter): 30.12 in. Hg (1020 hPa)
ob: ETHL 142320Z AUTO VRB01KT 9999 // ////// 12/06 Q1020 ///
cycle: 23


Klicken Sie hier, um zu den Durchschnitts-, Extrem-, Monats- oder Tageswerten zu gelangen


Die Wetterdaten werden alle 5 Minuten aktualisiert.
Die 3 stündige Echtzeitgrafik wird jede Minute aktualisiert.
Bei der 3 stündige Echtzeitgrafik sind derzeit die Skalenfarben von Winddurchschnitt u. Windböen vertauscht. (Softwarebug)

Drücken Sie gegebenenfalls auf "Aktualisieren" in Ihrem Browser, um die aktuellsten Daten zu erhalten.